sensor_id;sensor_type;location;lat;lon;timestamp;P1;durP1;ratioP1;P2;durP2;ratioP2
23519;SDS011;11936;50.820;4.336;2024-03-08T00:01:06;20.98;;;11.95;;
23519;SDS011;11936;50.820;4.336;2024-03-08T00:03:32;18.15;;;11.55;;
23519;SDS011;11936;50.820;4.336;2024-03-08T00:05:58;21.02;;;12.82;;
23519;SDS011;11936;50.820;4.336;2024-03-08T00:08:24;22.58;;;12.02;;
23519;SDS011;11936;50.820;4.336;2024-03-08T00:10:50;21.17;;;12.05;;
23519;SDS011;11936;50.820;4.336;2024-03-08T00:13:15;22.30;;;12.57;;
23519;SDS011;11936;50.820;4.336;2024-03-08T00:15:41;19.35;;;11.55;;
23519;SDS011;11936;50.820;4.336;2024-03-08T00:18:06;19.15;;;11.85;;
23519;SDS011;11936;50.820;4.336;2024-03-08T00:20:32;19.15;;;12.00;;
23519;SDS011;11936;50.820;4.336;2024-03-08T00:22:58;20.60;;;11.93;;
23519;SDS011;11936;50.820;4.336;2024-03-08T00:25:24;20.15;;;12.07;;
23519;SDS011;11936;50.820;4.336;2024-03-08T00:27:49;22.23;;;12.52;;
23519;SDS011;11936;50.820;4.336;2024-03-08T00:30:15;20.48;;;12.38;;
23519;SDS011;11936;50.820;4.336;2024-03-08T00:32:41;24.75;;;12.73;;
23519;SDS011;11936;50.820;4.336;2024-03-08T00:35:07;23.70;;;13.52;;
23519;SDS011;11936;50.820;4.336;2024-03-08T00:37:32;23.38;;;13.95;;
23519;SDS011;11936;50.820;4.336;2024-03-08T00:39:59;27.67;;;13.55;;
23519;SDS011;11936;50.820;4.336;2024-03-08T00:42:25;24.48;;;13.07;;
23519;SDS011;11936;50.820;4.336;2024-03-08T00:44:50;20.25;;;12.25;;
23519;SDS011;11936;50.820;4.336;2024-03-08T00:47:16;21.60;;;12.82;;
23519;SDS011;11936;50.820;4.336;2024-03-08T00:49:42;24.02;;;13.98;;
23519;SDS011;11936;50.820;4.336;2024-03-08T00:52:08;20.70;;;12.27;;
23519;SDS011;11936;50.820;4.336;2024-03-08T00:54:34;22.63;;;12.70;;
23519;SDS011;11936;50.820;4.336;2024-03-08T00:57:03;22.52;;;12.73;;
23519;SDS011;11936;50.820;4.336;2024-03-08T00:59:29;22.65;;;13.25;;
23519;SDS011;11936;50.820;4.336;2024-03-08T01:02:01;22.63;;;13.30;;
23519;SDS011;11936;50.820;4.336;2024-03-08T01:04:27;26.15;;;13.77;;
23519;SDS011;11936;50.820;4.336;2024-03-08T01:06:57;20.20;;;12.88;;
23519;SDS011;11936;50.820;4.336;2024-03-08T01:09:23;22.90;;;13.32;;
23519;SDS011;11936;50.820;4.336;2024-03-08T01:11:52;23.52;;;13.02;;
23519;SDS011;11936;50.820;4.336;2024-03-08T01:14:19;22.10;;;13.13;;
23519;SDS011;11936;50.820;4.336;2024-03-08T01:16:47;20.30;;;12.73;;
23519;SDS011;11936;50.820;4.336;2024-03-08T01:19:14;22.55;;;12.38;;
23519;SDS011;11936;50.820;4.336;2024-03-08T01:21:40;22.40;;;12.73;;
23519;SDS011;11936;50.820;4.336;2024-03-08T01:24:06;24.15;;;13.15;;
23519;SDS011;11936;50.820;4.336;2024-03-08T01:26:32;20.42;;;13.07;;
23519;SDS011;11936;50.820;4.336;2024-03-08T01:28:59;20.23;;;12.75;;
23519;SDS011;11936;50.820;4.336;2024-03-08T01:31:25;21.20;;;12.95;;
23519;SDS011;11936;50.820;4.336;2024-03-08T01:33:50;22.45;;;13.80;;
23519;SDS011;11936;50.820;4.336;2024-03-08T01:36:16;26.10;;;13.18;;
23519;SDS011;11936;50.820;4.336;2024-03-08T01:38:44;20.90;;;13.60;;
23519;SDS011;11936;50.820;4.336;2024-03-08T01:41:10;26.77;;;13.02;;
23519;SDS011;11936;50.820;4.336;2024-03-08T01:43:35;24.10;;;13.93;;
23519;SDS011;11936;50.820;4.336;2024-03-08T01:46:01;26.52;;;13.65;;
23519;SDS011;11936;50.820;4.336;2024-03-08T01:48:27;25.08;;;13.73;;
23519;SDS011;11936;50.820;4.336;2024-03-08T01:50:54;24.88;;;13.73;;
23519;SDS011;11936;50.820;4.336;2024-03-08T01:53:24;25.98;;;14.68;;
23519;SDS011;11936;50.820;4.336;2024-03-08T01:55:52;23.93;;;14.07;;
23519;SDS011;11936;50.820;4.336;2024-03-08T01:58:21;25.35;;;14.15;;
23519;SDS011;11936;50.820;4.336;2024-03-08T02:00:48;25.15;;;14.25;;
23519;SDS011;11936;50.820;4.336;2024-03-08T02:03:15;22.27;;;14.70;;
23519;SDS011;11936;50.820;4.336;2024-03-08T02:05:44;25.42;;;15.68;;
23519;SDS011;11936;50.820;4.336;2024-03-08T02:08:09;26.02;;;15.02;;
23519;SDS011;11936;50.820;4.336;2024-03-08T02:10:39;19.65;;;13.38;;
23519;SDS011;11936;50.820;4.336;2024-03-08T02:13:11;28.05;;;15.85;;
23519;SDS011;11936;50.820;4.336;2024-03-08T02:15:56;25.35;;;15.07;;
23519;SDS011;11936;50.820;4.336;2024-03-08T02:18:26;24.10;;;14.80;;
23519;SDS011;11936;50.820;4.336;2024-03-08T02:20:54;24.15;;;14.40;;
23519;SDS011;11936;50.820;4.336;2024-03-08T02:23:23;21.63;;;14.48;;
23519;SDS011;11936;50.820;4.336;2024-03-08T02:25:50;22.90;;;13.93;;
23519;SDS011;11936;50.820;4.336;2024-03-08T02:28:16;24.55;;;14.30;;
23519;SDS011;11936;50.820;4.336;2024-03-08T02:30:45;27.80;;;15.55;;
23519;SDS011;11936;50.820;4.336;2024-03-08T02:33:12;22.02;;;14.65;;
23519;SDS011;11936;50.820;4.336;2024-03-08T02:35:41;24.83;;;14.88;;
23519;SDS011;11936;50.820;4.336;2024-03-08T02:38:11;27.75;;;15.68;;
23519;SDS011;11936;50.820;4.336;2024-03-08T02:40:38;22.65;;;15.18;;
23519;SDS011;11936;50.820;4.336;2024-03-08T02:43:03;23.10;;;14.55;;
23519;SDS011;11936;50.820;4.336;2024-03-08T02:45:30;22.92;;;14.68;;
23519;SDS011;11936;50.820;4.336;2024-03-08T02:47:55;26.42;;;16.48;;
23519;SDS011;11936;50.820;4.336;2024-03-08T02:50:21;23.30;;;14.45;;
23519;SDS011;11936;50.820;4.336;2024-03-08T02:52:47;23.33;;;14.57;;
23519;SDS011;11936;50.820;4.336;2024-03-08T02:55:13;28.05;;;14.75;;
23519;SDS011;11936;50.820;4.336;2024-03-08T02:57:42;26.52;;;16.25;;
23519;SDS011;11936;50.820;4.336;2024-03-08T03:00:12;25.63;;;15.48;;
23519;SDS011;11936;50.820;4.336;2024-03-08T03:02:38;22.88;;;15.05;;
23519;SDS011;11936;50.820;4.336;2024-03-08T03:05:04;23.50;;;14.75;;
23519;SDS011;11936;50.820;4.336;2024-03-08T03:07:32;25.67;;;15.63;;
23519;SDS011;11936;50.820;4.336;2024-03-08T03:09:58;22.40;;;15.00;;
23519;SDS011;11936;50.820;4.336;2024-03-08T03:12:25;21.23;;;14.68;;
23519;SDS011;11936;50.820;4.336;2024-03-08T03:14:52;27.83;;;16.95;;
23519;SDS011;11936;50.820;4.336;2024-03-08T03:17:18;23.30;;;15.73;;
23519;SDS011;11936;50.820;4.336;2024-03-08T03:19:43;28.00;;;15.95;;
23519;SDS011;11936;50.820;4.336;2024-03-08T03:22:10;24.75;;;15.48;;
23519;SDS011;11936;50.820;4.336;2024-03-08T03:24:35;22.20;;;15.18;;
23519;SDS011;11936;50.820;4.336;2024-03-08T03:27:03;22.08;;;15.45;;
23519;SDS011;11936;50.820;4.336;2024-03-08T03:29:36;24.20;;;16.08;;
23519;SDS011;11936;50.820;4.336;2024-03-08T03:32:03;23.95;;;15.32;;
23519;SDS011;11936;50.820;4.336;2024-03-08T03:34:29;28.88;;;15.60;;
23519;SDS011;11936;50.820;4.336;2024-03-08T03:36:54;23.20;;;15.07;;
23519;SDS011;11936;50.820;4.336;2024-03-08T03:39:20;24.77;;;16.27;;
23519;SDS011;11936;50.820;4.336;2024-03-08T03:41:47;27.08;;;15.77;;
23519;SDS011;11936;50.820;4.336;2024-03-08T03:44:17;24.58;;;15.70;;
23519;SDS011;11936;50.820;4.336;2024-03-08T03:46:43;26.27;;;16.52;;
23519;SDS011;11936;50.820;4.336;2024-03-08T03:51:37;26.77;;;15.55;;
23519;SDS011;11936;50.820;4.336;2024-03-08T03:54:03;25.05;;;16.15;;
23519;SDS011;11936;50.820;4.336;2024-03-08T03:56:29;26.30;;;17.10;;
23519;SDS011;11936;50.820;4.336;2024-03-08T03:58:55;24.20;;;16.05;;
23519;SDS011;11936;50.820;4.336;2024-03-08T04:01:21;34.80;;;15.95;;
23519;SDS011;11936;50.820;4.336;2024-03-08T04:03:47;26.05;;;16.52;;
23519;SDS011;11936;50.820;4.336;2024-03-08T04:06:12;22.73;;;16.20;;
23519;SDS011;11936;50.820;4.336;2024-03-08T04:08:39;30.92;;;17.20;;
23519;SDS011;11936;50.820;4.336;2024-03-08T04:11:05;25.17;;;16.95;;
23519;SDS011;11936;50.820;4.336;2024-03-08T04:13:30;26.02;;;16.98;;
23519;SDS011;11936;50.820;4.336;2024-03-08T04:15:56;26.10;;;17.05;;
23519;SDS011;11936;50.820;4.336;2024-03-08T04:18:21;23.77;;;16.42;;
23519;SDS011;11936;50.820;4.336;2024-03-08T04:20:47;25.17;;;16.88;;
23519;SDS011;11936;50.820;4.336;2024-03-08T04:23:13;25.67;;;16.58;;
23519;SDS011;11936;50.820;4.336;2024-03-08T04:25:39;28.52;;;16.75;;
23519;SDS011;11936;50.820;4.336;2024-03-08T04:28:08;24.00;;;16.58;;
23519;SDS011;11936;50.820;4.336;2024-03-08T04:30:36;26.50;;;17.23;;
23519;SDS011;11936;50.820;4.336;2024-03-08T04:33:03;25.10;;;17.50;;
23519;SDS011;11936;50.820;4.336;2024-03-08T04:35:29;25.52;;;16.60;;
23519;SDS011;11936;50.820;4.336;2024-03-08T04:37:55;24.80;;;16.45;;
23519;SDS011;11936;50.820;4.336;2024-03-08T04:40:22;25.75;;;17.00;;
23519;SDS011;11936;50.820;4.336;2024-03-08T04:42:48;28.05;;;17.75;;
23519;SDS011;11936;50.820;4.336;2024-03-08T04:45:16;27.80;;;16.80;;
23519;SDS011;11936;50.820;4.336;2024-03-08T04:47:42;26.33;;;16.77;;
23519;SDS011;11936;50.820;4.336;2024-03-08T04:50:08;32.00;;;17.17;;
23519;SDS011;11936;50.820;4.336;2024-03-08T04:52:34;24.30;;;16.83;;
23519;SDS011;11936;50.820;4.336;2024-03-08T04:55:00;25.60;;;16.83;;
23519;SDS011;11936;50.820;4.336;2024-03-08T04:57:29;23.38;;;16.13;;
23519;SDS011;11936;50.820;4.336;2024-03-08T04:59:55;27.77;;;17.25;;
23519;SDS011;11936;50.820;4.336;2024-03-08T05:02:20;28.00;;;17.48;;
23519;SDS011;11936;50.820;4.336;2024-03-08T05:04:47;25.95;;;16.30;;
23519;SDS011;11936;50.820;4.336;2024-03-08T05:07:13;26.17;;;16.38;;
23519;SDS011;11936;50.820;4.336;2024-03-08T05:09:39;42.08;;;18.65;;
23519;SDS011;11936;50.820;4.336;2024-03-08T05:12:06;24.77;;;16.90;;
23519;SDS011;11936;50.820;4.336;2024-03-08T05:14:33;34.50;;;16.77;;
23519;SDS011;11936;50.820;4.336;2024-03-08T05:17:00;26.65;;;17.08;;
23519;SDS011;11936;50.820;4.336;2024-03-08T05:19:26;23.40;;;16.77;;
23519;SDS011;11936;50.820;4.336;2024-03-08T05:21:51;31.27;;;18.10;;
23519;SDS011;11936;50.820;4.336;2024-03-08T05:24:17;28.88;;;17.27;;
23519;SDS011;11936;50.820;4.336;2024-03-08T05:26:44;24.02;;;17.35;;
23519;SDS011;11936;50.820;4.336;2024-03-08T05:29:10;26.33;;;17.10;;
23519;SDS011;11936;50.820;4.336;2024-03-08T05:31:50;26.33;;;16.77;;
23519;SDS011;11936;50.820;4.336;2024-03-08T05:34:20;24.52;;;15.55;;
23519;SDS011;11936;50.820;4.336;2024-03-08T05:36:47;31.67;;;18.33;;
23519;SDS011;11936;50.820;4.336;2024-03-08T05:39:14;24.97;;;15.53;;
23519;SDS011;11936;50.820;4.336;2024-03-08T05:41:42;25.92;;;16.42;;
23519;SDS011;11936;50.820;4.336;2024-03-08T05:44:08;27.50;;;17.40;;
23519;SDS011;11936;50.820;4.336;2024-03-08T05:46:34;21.88;;;15.32;;
23519;SDS011;11936;50.820;4.336;2024-03-08T05:49:03;30.05;;;17.23;;
23519;SDS011;11936;50.820;4.336;2024-03-08T05:51:31;25.88;;;17.42;;
23519;SDS011;11936;50.820;4.336;2024-03-08T05:53:58;29.17;;;17.70;;
23519;SDS011;11936;50.820;4.336;2024-03-08T05:56:23;29.40;;;16.42;;
23519;SDS011;11936;50.820;4.336;2024-03-08T05:58:50;25.73;;;17.15;;
23519;SDS011;11936;50.820;4.336;2024-03-08T06:01:15;29.88;;;17.35;;
23519;SDS011;11936;50.820;4.336;2024-03-08T06:03:41;23.90;;;16.13;;
23519;SDS011;11936;50.820;4.336;2024-03-08T06:06:13;23.15;;;16.60;;
23519;SDS011;11936;50.820;4.336;2024-03-08T06:08:40;30.83;;;17.00;;
23519;SDS011;11936;50.820;4.336;2024-03-08T06:11:07;26.77;;;16.15;;
23519;SDS011;11936;50.820;4.336;2024-03-08T06:13:33;26.77;;;16.73;;
23519;SDS011;11936;50.820;4.336;2024-03-08T06:15:59;27.20;;;16.30;;
23519;SDS011;11936;50.820;4.336;2024-03-08T06:18:29;26.45;;;17.33;;
23519;SDS011;11936;50.820;4.336;2024-03-08T06:20:57;30.75;;;17.65;;
23519;SDS011;11936;50.820;4.336;2024-03-08T06:23:23;27.90;;;16.88;;
23519;SDS011;11936;50.820;4.336;2024-03-08T06:25:49;25.80;;;15.57;;
23519;SDS011;11936;50.820;4.336;2024-03-08T06:28:14;29.70;;;17.27;;
23519;SDS011;11936;50.820;4.336;2024-03-08T06:30:40;24.30;;;15.50;;
23519;SDS011;11936;50.820;4.336;2024-03-08T06:33:06;26.15;;;16.30;;
23519;SDS011;11936;50.820;4.336;2024-03-08T06:35:35;34.95;;;17.55;;
23519;SDS011;11936;50.820;4.336;2024-03-08T06:38:03;25.80;;;16.13;;
23519;SDS011;11936;50.820;4.336;2024-03-08T06:40:29;28.77;;;16.52;;
23519;SDS011;11936;50.820;4.336;2024-03-08T06:42:54;28.70;;;17.85;;
23519;SDS011;11936;50.820;4.336;2024-03-08T06:45:20;30.23;;;17.52;;
23519;SDS011;11936;50.820;4.336;2024-03-08T06:47:46;36.50;;;17.13;;
23519;SDS011;11936;50.820;4.336;2024-03-08T06:50:12;26.92;;;17.05;;
23519;SDS011;11936;50.820;4.336;2024-03-08T06:52:40;26.75;;;16.92;;
23519;SDS011;11936;50.820;4.336;2024-03-08T06:55:07;26.13;;;16.38;;
23519;SDS011;11936;50.820;4.336;2024-03-08T06:57:36;28.20;;;17.45;;
23519;SDS011;11936;50.820;4.336;2024-03-08T07:00:08;27.33;;;17.25;;
23519;SDS011;11936;50.820;4.336;2024-03-08T07:02:36;32.35;;;18.05;;
23519;SDS011;11936;50.820;4.336;2024-03-08T07:05:02;28.70;;;17.38;;
23519;SDS011;11936;50.820;4.336;2024-03-08T07:07:29;30.38;;;15.85;;
23519;SDS011;11936;50.820;4.336;2024-03-08T07:09:56;29.30;;;17.63;;
23519;SDS011;11936;50.820;4.336;2024-03-08T07:12:22;33.53;;;17.88;;
23519;SDS011;11936;50.820;4.336;2024-03-08T07:14:48;33.63;;;16.90;;
23519;SDS011;11936;50.820;4.336;2024-03-08T07:17:14;33.83;;;18.08;;
23519;SDS011;11936;50.820;4.336;2024-03-08T07:19:41;28.98;;;17.55;;
23519;SDS011;11936;50.820;4.336;2024-03-08T07:22:07;28.00;;;16.10;;
23519;SDS011;11936;50.820;4.336;2024-03-08T07:24:36;28.80;;;17.13;;
23519;SDS011;11936;50.820;4.336;2024-03-08T07:27:03;28.02;;;16.95;;
23519;SDS011;11936;50.820;4.336;2024-03-08T07:29:32;33.50;;;18.02;;
23519;SDS011;11936;50.820;4.336;2024-03-08T07:31:59;27.15;;;16.73;;
23519;SDS011;11936;50.820;4.336;2024-03-08T07:34:27;28.40;;;16.95;;
23519;SDS011;11936;50.820;4.336;2024-03-08T07:36:57;26.58;;;16.33;;
23519;SDS011;11936;50.820;4.336;2024-03-08T07:39:23;24.08;;;15.93;;
23519;SDS011;11936;50.820;4.336;2024-03-08T07:41:48;35.97;;;17.20;;
23519;SDS011;11936;50.820;4.336;2024-03-08T07:44:17;25.55;;;15.98;;
23519;SDS011;11936;50.820;4.336;2024-03-08T07:46:43;26.05;;;16.58;;
23519;SDS011;11936;50.820;4.336;2024-03-08T07:49:09;28.25;;;17.20;;
23519;SDS011;11936;50.820;4.336;2024-03-08T07:51:36;31.38;;;17.27;;
23519;SDS011;11936;50.820;4.336;2024-03-08T07:54:02;32.75;;;16.58;;
23519;SDS011;11936;50.820;4.336;2024-03-08T07:56:29;30.58;;;17.90;;
23519;SDS011;11936;50.820;4.336;2024-03-08T07:58:55;33.00;;;15.70;;
23519;SDS011;11936;50.820;4.336;2024-03-08T08:01:21;32.08;;;17.67;;
23519;SDS011;11936;50.820;4.336;2024-03-08T08:03:47;34.53;;;17.95;;
23519;SDS011;11936;50.820;4.336;2024-03-08T08:08:42;36.95;;;16.83;;
23519;SDS011;11936;50.820;4.336;2024-03-08T08:11:08;24.45;;;15.32;;
23519;SDS011;11936;50.820;4.336;2024-03-08T08:13:34;29.00;;;17.25;;
23519;SDS011;11936;50.820;4.336;2024-03-08T08:16:01;31.55;;;17.02;;
23519;SDS011;11936;50.820;4.336;2024-03-08T08:18:27;25.38;;;16.10;;
23519;SDS011;11936;50.820;4.336;2024-03-08T08:20:54;30.00;;;16.85;;
23519;SDS011;11936;50.820;4.336;2024-03-08T08:23:20;28.02;;;16.50;;
23519;SDS011;11936;50.820;4.336;2024-03-08T08:25:46;30.33;;;16.48;;
23519;SDS011;11936;50.820;4.336;2024-03-08T08:28:15;28.33;;;16.60;;
23519;SDS011;11936;50.820;4.336;2024-03-08T08:30:43;27.70;;;16.00;;
23519;SDS011;11936;50.820;4.336;2024-03-08T08:33:08;30.35;;;16.55;;
23519;SDS011;11936;50.820;4.336;2024-03-08T08:35:35;27.85;;;15.68;;
23519;SDS011;11936;50.820;4.336;2024-03-08T08:40:29;27.58;;;16.52;;
23519;SDS011;11936;50.820;4.336;2024-03-08T08:42:57;25.88;;;16.20;;
23519;SDS011;11936;50.820;4.336;2024-03-08T08:45:23;33.72;;;15.18;;
23519;SDS011;11936;50.820;4.336;2024-03-08T08:47:49;23.73;;;15.93;;
23519;SDS011;11936;50.820;4.336;2024-03-08T08:50:14;26.77;;;16.23;;
23519;SDS011;11936;50.820;4.336;2024-03-08T08:52:41;39.05;;;16.10;;
23519;SDS011;11936;50.820;4.336;2024-03-08T08:55:10;31.38;;;15.70;;
23519;SDS011;11936;50.820;4.336;2024-03-08T08:57:39;26.23;;;14.18;;
23519;SDS011;11936;50.820;4.336;2024-03-08T09:00:05;27.15;;;16.38;;
23519;SDS011;11936;50.820;4.336;2024-03-08T09:02:32;27.67;;;16.55;;
23519;SDS011;11936;50.820;4.336;2024-03-08T09:04:59;26.80;;;16.15;;
23519;SDS011;11936;50.820;4.336;2024-03-08T09:07:25;28.30;;;15.88;;
23519;SDS011;11936;50.820;4.336;2024-03-08T09:09:52;22.75;;;15.07;;
23519;SDS011;11936;50.820;4.336;2024-03-08T09:12:22;27.45;;;14.85;;
23519;SDS011;11936;50.820;4.336;2024-03-08T09:14:48;34.70;;;15.07;;
23519;SDS011;11936;50.820;4.336;2024-03-08T09:17:14;28.83;;;15.82;;
23519;SDS011;11936;50.820;4.336;2024-03-08T09:19:42;25.25;;;16.13;;
23519;SDS011;11936;50.820;4.336;2024-03-08T09:22:08;24.88;;;15.10;;
23519;SDS011;11936;50.820;4.336;2024-03-08T09:24:34;24.45;;;14.10;;
23519;SDS011;11936;50.820;4.336;2024-03-08T09:26:59;24.20;;;13.95;;
23519;SDS011;11936;50.820;4.336;2024-03-08T09:29:25;23.13;;;14.20;;
23519;SDS011;11936;50.820;4.336;2024-03-08T09:31:51;24.50;;;13.75;;
23519;SDS011;11936;50.820;4.336;2024-03-08T09:34:16;24.08;;;13.38;;
23519;SDS011;11936;50.820;4.336;2024-03-08T09:36:43;28.05;;;14.25;;
23519;SDS011;11936;50.820;4.336;2024-03-08T09:39:09;24.30;;;13.98;;
23519;SDS011;11936;50.820;4.336;2024-03-08T09:41:41;21.13;;;13.25;;
23519;SDS011;11936;50.820;4.336;2024-03-08T09:44:08;22.23;;;13.63;;
23519;SDS011;11936;50.820;4.336;2024-03-08T09:46:34;23.25;;;14.00;;
23519;SDS011;11936;50.820;4.336;2024-03-08T09:49:00;23.55;;;13.90;;
23519;SDS011;11936;50.820;4.336;2024-03-08T09:51:30;23.95;;;14.65;;
23519;SDS011;11936;50.820;4.336;2024-03-08T09:53:59;23.02;;;12.52;;
23519;SDS011;11936;50.820;4.336;2024-03-08T09:56:25;18.60;;;13.43;;
23519;SDS011;11936;50.820;4.336;2024-03-08T09:58:52;22.02;;;13.75;;
23519;SDS011;11936;50.820;4.336;2024-03-08T10:01:41;21.27;;;14.02;;
23519;SDS011;11936;50.820;4.336;2024-03-08T10:04:06;23.92;;;13.43;;
23519;SDS011;11936;50.820;4.336;2024-03-08T10:06:35;20.92;;;13.35;;
23519;SDS011;11936;50.820;4.336;2024-03-08T10:09:01;24.08;;;14.48;;
23519;SDS011;11936;50.820;4.336;2024-03-08T10:11:27;24.75;;;13.70;;
23519;SDS011;11936;50.820;4.336;2024-03-08T10:13:52;20.17;;;13.38;;
23519;SDS011;11936;50.820;4.336;2024-03-08T10:16:19;22.92;;;15.23;;
23519;SDS011;11936;50.820;4.336;2024-03-08T10:18:45;21.83;;;13.45;;
23519;SDS011;11936;50.820;4.336;2024-03-08T10:21:11;25.40;;;13.55;;
23519;SDS011;11936;50.820;4.336;2024-03-08T10:23:38;27.13;;;14.38;;
23519;SDS011;11936;50.820;4.336;2024-03-08T10:28:36;24.98;;;13.80;;
23519;SDS011;11936;50.820;4.336;2024-03-08T10:31:02;28.90;;;13.45;;
23519;SDS011;11936;50.820;4.336;2024-03-08T10:33:27;21.02;;;14.15;;
23519;SDS011;11936;50.820;4.336;2024-03-08T10:35:53;24.67;;;13.40;;
23519;SDS011;11936;50.820;4.336;2024-03-08T10:38:20;25.35;;;13.82;;
23519;SDS011;11936;50.820;4.336;2024-03-08T10:40:49;23.30;;;13.05;;
23519;SDS011;11936;50.820;4.336;2024-03-08T10:43:23;20.35;;;13.73;;
23519;SDS011;11936;50.820;4.336;2024-03-08T10:48:47;27.52;;;15.50;;
23519;SDS011;11936;50.820;4.336;2024-03-08T10:51:16;25.05;;;13.25;;
23519;SDS011;11936;50.820;4.336;2024-03-08T10:53:43;21.55;;;13.27;;
23519;SDS011;11936;50.820;4.336;2024-03-08T10:56:11;20.30;;;12.85;;
23519;SDS011;11936;50.820;4.336;2024-03-08T10:58:39;21.00;;;13.82;;
23519;SDS011;11936;50.820;4.336;2024-03-08T11:01:05;20.65;;;12.80;;
23519;SDS011;11936;50.820;4.336;2024-03-08T11:06:09;23.77;;;15.00;;
23519;SDS011;11936;50.820;4.336;2024-03-08T11:08:40;28.77;;;14.10;;
23519;SDS011;11936;50.820;4.336;2024-03-08T11:11:05;19.88;;;13.32;;
23519;SDS011;11936;50.820;4.336;2024-03-08T11:13:47;21.05;;;11.85;;
23519;SDS011;11936;50.820;4.336;2024-03-08T11:21:29;20.35;;;13.88;;
23519;SDS011;11936;50.820;4.336;2024-03-08T11:26:24;24.13;;;12.82;;
23519;SDS011;11936;50.820;4.336;2024-03-08T11:28:50;22.67;;;12.85;;
23519;SDS011;11936;50.820;4.336;2024-03-08T11:33:46;26.02;;;13.90;;
23519;SDS011;11936;50.820;4.336;2024-03-08T11:36:20;19.02;;;13.32;;
23519;SDS011;11936;50.820;4.336;2024-03-08T11:38:47;18.90;;;12.80;;
23519;SDS011;11936;50.820;4.336;2024-03-08T11:41:22;22.15;;;13.40;;
23519;SDS011;11936;50.820;4.336;2024-03-08T11:43:48;22.60;;;14.32;;
23519;SDS011;11936;50.820;4.336;2024-03-08T11:46:26;25.35;;;12.50;;
23519;SDS011;11936;50.820;4.336;2024-03-08T11:48:54;21.48;;;13.13;;
23519;SDS011;11936;50.820;4.336;2024-03-08T11:51:21;20.58;;;14.10;;
23519;SDS011;11936;50.820;4.336;2024-03-08T11:53:48;22.02;;;13.68;;
23519;SDS011;11936;50.820;4.336;2024-03-08T11:56:18;21.83;;;12.27;;
23519;SDS011;11936;50.820;4.336;2024-03-08T11:58:52;23.30;;;13.32;;
23519;SDS011;11936;50.820;4.336;2024-03-08T12:01:22;20.33;;;12.80;;
23519;SDS011;11936;50.820;4.336;2024-03-08T12:03:57;19.27;;;13.40;;
23519;SDS011;11936;50.820;4.336;2024-03-08T12:06:23;22.73;;;14.05;;
23519;SDS011;11936;50.820;4.336;2024-03-08T12:08:50;21.17;;;13.18;;
23519;SDS011;11936;50.820;4.336;2024-03-08T12:11:16;19.83;;;13.02;;
23519;SDS011;11936;50.820;4.336;2024-03-08T12:13:44;20.13;;;13.18;;
23519;SDS011;11936;50.820;4.336;2024-03-08T12:16:11;22.23;;;13.43;;
23519;SDS011;11936;50.820;4.336;2024-03-08T12:18:37;20.17;;;13.25;;
23519;SDS011;11936;50.820;4.336;2024-03-08T12:21:10;19.95;;;13.30;;
23519;SDS011;11936;50.820;4.336;2024-03-08T12:23:38;16.70;;;12.80;;
23519;SDS011;11936;50.820;4.336;2024-03-08T12:26:14;28.42;;;14.18;;
23519;SDS011;11936;50.820;4.336;2024-03-08T12:28:42;22.75;;;13.90;;
23519;SDS011;11936;50.820;4.336;2024-03-08T12:31:12;19.95;;;12.93;;
23519;SDS011;11936;50.820;4.336;2024-03-08T12:33:48;18.90;;;12.77;;
23519;SDS011;11936;50.820;4.336;2024-03-08T12:36:15;21.58;;;11.98;;
23519;SDS011;11936;50.820;4.336;2024-03-08T12:38:44;17.35;;;12.10;;
23519;SDS011;11936;50.820;4.336;2024-03-08T12:43:43;21.75;;;12.32;;
23519;SDS011;11936;50.820;4.336;2024-03-08T12:48:43;17.42;;;10.93;;
23519;SDS011;11936;50.820;4.336;2024-03-08T12:51:11;20.25;;;11.90;;
23519;SDS011;11936;50.820;4.336;2024-03-08T12:53:38;18.35;;;11.32;;
23519;SDS011;11936;50.820;4.336;2024-03-08T12:56:05;20.38;;;12.20;;
23519;SDS011;11936;50.820;4.336;2024-03-08T12:58:33;26.30;;;12.83;;
23519;SDS011;11936;50.820;4.336;2024-03-08T13:01:01;21.35;;;12.40;;
23519;SDS011;11936;50.820;4.336;2024-03-08T13:03:29;20.05;;;11.77;;
23519;SDS011;11936;50.820;4.336;2024-03-08T13:05:56;19.58;;;13.00;;
23519;SDS011;11936;50.820;4.336;2024-03-08T13:08:22;20.67;;;12.88;;
23519;SDS011;11936;50.820;4.336;2024-03-08T13:10:50;25.60;;;11.80;;
23519;SDS011;11936;50.820;4.336;2024-03-08T13:13:16;19.00;;;12.35;;
23519;SDS011;11936;50.820;4.336;2024-03-08T13:15:42;22.05;;;12.38;;
23519;SDS011;11936;50.820;4.336;2024-03-08T13:18:08;23.90;;;11.82;;
23519;SDS011;11936;50.820;4.336;2024-03-08T13:20:35;16.88;;;12.02;;
23519;SDS011;11936;50.820;4.336;2024-03-08T13:23:03;16.85;;;11.70;;
23519;SDS011;11936;50.820;4.336;2024-03-08T13:25:30;21.90;;;11.70;;
23519;SDS011;11936;50.820;4.336;2024-03-08T13:27:56;19.55;;;12.48;;
23519;SDS011;11936;50.820;4.336;2024-03-08T13:30:24;20.83;;;11.48;;
23519;SDS011;11936;50.820;4.336;2024-03-08T13:32:51;22.92;;;11.88;;
23519;SDS011;11936;50.820;4.336;2024-03-08T13:35:18;16.45;;;11.82;;
23519;SDS011;11936;50.820;4.336;2024-03-08T13:37:49;18.00;;;11.35;;
23519;SDS011;11936;50.820;4.336;2024-03-08T13:40:16;20.15;;;11.07;;
23519;SDS011;11936;50.820;4.336;2024-03-08T13:42:48;16.83;;;10.27;;
23519;SDS011;11936;50.820;4.336;2024-03-08T13:45:14;21.27;;;11.75;;
23519;SDS011;11936;50.820;4.336;2024-03-08T13:47:46;15.27;;;10.85;;
23519;SDS011;11936;50.820;4.336;2024-03-08T13:50:12;14.40;;;10.48;;
23519;SDS011;11936;50.820;4.336;2024-03-08T13:52:38;18.98;;;11.45;;
23519;SDS011;11936;50.820;4.336;2024-03-08T13:55:05;17.08;;;11.38;;
23519;SDS011;11936;50.820;4.336;2024-03-08T13:57:31;17.00;;;11.25;;
23519;SDS011;11936;50.820;4.336;2024-03-08T13:59:57;17.98;;;11.90;;
23519;SDS011;11936;50.820;4.336;2024-03-08T14:02:23;18.10;;;10.95;;
23519;SDS011;11936;50.820;4.336;2024-03-08T14:04:53;22.23;;;10.85;;
23519;SDS011;11936;50.820;4.336;2024-03-08T14:07:19;15.38;;;9.88;;
23519;SDS011;11936;50.820;4.336;2024-03-08T14:09:45;16.98;;;11.07;;
23519;SDS011;11936;50.820;4.336;2024-03-08T14:12:11;18.98;;;11.32;;
23519;SDS011;11936;50.820;4.336;2024-03-08T14:14:37;19.88;;;10.85;;
23519;SDS011;11936;50.820;4.336;2024-03-08T14:17:02;17.23;;;10.02;;
23519;SDS011;11936;50.820;4.336;2024-03-08T14:19:29;18.00;;;11.80;;
23519;SDS011;11936;50.820;4.336;2024-03-08T14:21:59;16.90;;;10.27;;
23519;SDS011;11936;50.820;4.336;2024-03-08T14:24:25;14.23;;;9.73;;
23519;SDS011;11936;50.820;4.336;2024-03-08T14:26:51;19.65;;;10.55;;
23519;SDS011;11936;50.820;4.336;2024-03-08T14:29:17;15.80;;;10.95;;
23519;SDS011;11936;50.820;4.336;2024-03-08T14:34:11;14.68;;;9.98;;
23519;SDS011;11936;50.820;4.336;2024-03-08T14:36:39;25.20;;;11.15;;
23519;SDS011;11936;50.820;4.336;2024-03-08T14:39:04;17.70;;;10.38;;
23519;SDS011;11936;50.820;4.336;2024-03-08T14:41:32;17.23;;;10.55;;
23519;SDS011;11936;50.820;4.336;2024-03-08T14:43:57;16.60;;;9.88;;
23519;SDS011;11936;50.820;4.336;2024-03-08T14:46:24;16.50;;;10.73;;
23519;SDS011;11936;50.820;4.336;2024-03-08T14:48:49;16.42;;;10.77;;
23519;SDS011;11936;50.820;4.336;2024-03-08T14:51:18;24.90;;;10.20;;
23519;SDS011;11936;50.820;4.336;2024-03-08T14:53:46;16.38;;;9.48;;